sensor_id;sensor_type;location;lat;lon;timestamp;P1;durP1;ratioP1;P2;durP2;ratioP2
42192;SDS011;52467;40.114;18.306;2023-05-16T00:00:51;51.35;;;8.10;;
42192;SDS011;52467;40.114;18.306;2023-05-16T00:03:24;55.60;;;7.78;;
42192;SDS011;52467;40.114;18.306;2023-05-16T00:05:52;56.05;;;8.80;;
42192;SDS011;52467;40.114;18.306;2023-05-16T00:08:19;45.35;;;8.20;;
42192;SDS011;52467;40.114;18.306;2023-05-16T00:10:47;50.15;;;9.43;;
42192;SDS011;52467;40.114;18.306;2023-05-16T00:13:14;62.95;;;9.80;;
42192;SDS011;52467;40.114;18.306;2023-05-16T00:15:41;66.40;;;8.98;;
42192;SDS011;52467;40.114;18.306;2023-05-16T00:18:09;71.05;;;11.10;;
42192;SDS011;52467;40.114;18.306;2023-05-16T00:20:41;67.05;;;10.40;;
42192;SDS011;52467;40.114;18.306;2023-05-16T00:23:08;70.05;;;10.38;;
42192;SDS011;52467;40.114;18.306;2023-05-16T00:25:36;62.63;;;9.30;;
42192;SDS011;52467;40.114;18.306;2023-05-16T00:28:03;64.60;;;9.73;;
42192;SDS011;52467;40.114;18.306;2023-05-16T00:30:31;67.60;;;8.87;;
42192;SDS011;52467;40.114;18.306;2023-05-16T00:32:58;67.97;;;9.93;;
42192;SDS011;52467;40.114;18.306;2023-05-16T00:35:26;63.72;;;9.35;;
42192;SDS011;52467;40.114;18.306;2023-05-16T00:37:53;56.97;;;9.20;;
42192;SDS011;52467;40.114;18.306;2023-05-16T00:40:20;76.73;;;10.23;;
42192;SDS011;52467;40.114;18.306;2023-05-16T00:42:48;64.28;;;9.10;;
42192;SDS011;52467;40.114;18.306;2023-05-16T00:45:15;61.75;;;10.15;;
42192;SDS011;52467;40.114;18.306;2023-05-16T00:47:42;63.72;;;10.98;;
42192;SDS011;52467;40.114;18.306;2023-05-16T00:50:10;58.67;;;10.65;;
42192;SDS011;52467;40.114;18.306;2023-05-16T00:52:37;69.87;;;10.40;;
42192;SDS011;52467;40.114;18.306;2023-05-16T00:55:05;62.70;;;9.30;;
42192;SDS011;52467;40.114;18.306;2023-05-16T00:57:33;62.40;;;9.77;;
42192;SDS011;52467;40.114;18.306;2023-05-16T01:00:02;63.15;;;10.50;;
42192;SDS011;52467;40.114;18.306;2023-05-16T01:02:34;68.32;;;9.45;;
42192;SDS011;52467;40.114;18.306;2023-05-16T01:05:03;60.30;;;9.48;;
42192;SDS011;52467;40.114;18.306;2023-05-16T01:07:31;60.80;;;9.20;;
42192;SDS011;52467;40.114;18.306;2023-05-16T01:09:58;60.20;;;9.07;;
42192;SDS011;52467;40.114;18.306;2023-05-16T01:12:36;54.17;;;7.78;;
42192;SDS011;52467;40.114;18.306;2023-05-16T01:15:12;50.03;;;8.85;;
42192;SDS011;52467;40.114;18.306;2023-05-16T01:21:00;53.60;;;7.45;;
42192;SDS011;52467;40.114;18.306;2023-05-16T01:26:22;49.05;;;6.47;;
42192;SDS011;52467;40.114;18.306;2023-05-16T01:28:53;37.15;;;6.30;;
42192;SDS011;52467;40.114;18.306;2023-05-16T01:31:21;44.47;;;6.35;;
42192;SDS011;52467;40.114;18.306;2023-05-16T01:33:50;44.25;;;6.05;;
42192;SDS011;52467;40.114;18.306;2023-05-16T01:41:52;31.30;;;4.60;;
42192;SDS011;52467;40.114;18.306;2023-05-16T01:44:32;30.40;;;4.00;;
42192;SDS011;52467;40.114;18.306;2023-05-16T01:47:13;25.23;;;4.20;;
42192;SDS011;52467;40.114;18.306;2023-05-16T01:52:37;28.88;;;3.60;;
42192;SDS011;52467;40.114;18.306;2023-05-16T01:55:21;23.47;;;3.90;;
42192;SDS011;52467;40.114;18.306;2023-05-16T01:57:50;26.88;;;3.97;;
42192;SDS011;52467;40.114;18.306;2023-05-16T02:00:19;16.55;;;3.38;;
42192;SDS011;52467;40.114;18.306;2023-05-16T02:02:46;23.23;;;3.58;;
42192;SDS011;52467;40.114;18.306;2023-05-16T02:05:15;25.20;;;4.07;;
42192;SDS011;52467;40.114;18.306;2023-05-16T02:07:43;26.00;;;3.42;;
42192;SDS011;52467;40.114;18.306;2023-05-16T02:10:10;23.57;;;3.83;;
42192;SDS011;52467;40.114;18.306;2023-05-16T02:12:39;20.02;;;3.85;;
42192;SDS011;52467;40.114;18.306;2023-05-16T02:15:06;27.20;;;4.05;;
42192;SDS011;52467;40.114;18.306;2023-05-16T02:17:35;28.95;;;4.35;;
42192;SDS011;52467;40.114;18.306;2023-05-16T02:20:03;28.70;;;4.35;;
42192;SDS011;52467;40.114;18.306;2023-05-16T02:22:32;22.88;;;4.32;;
42192;SDS011;52467;40.114;18.306;2023-05-16T02:25:00;25.85;;;3.40;;
42192;SDS011;52467;40.114;18.306;2023-05-16T02:27:29;20.10;;;3.95;;
42192;SDS011;52467;40.114;18.306;2023-05-16T02:29:56;24.45;;;3.65;;
42192;SDS011;52467;40.114;18.306;2023-05-16T02:32:24;19.85;;;2.78;;
42192;SDS011;52467;40.114;18.306;2023-05-16T02:34:51;23.25;;;3.15;;
42192;SDS011;52467;40.114;18.306;2023-05-16T02:37:19;23.63;;;3.00;;
42192;SDS011;52467;40.114;18.306;2023-05-16T02:39:48;36.25;;;3.60;;
42192;SDS011;52467;40.114;18.306;2023-05-16T02:42:15;19.73;;;3.20;;
42192;SDS011;52467;40.114;18.306;2023-05-16T02:44:43;22.20;;;3.42;;
42192;SDS011;52467;40.114;18.306;2023-05-16T02:47:10;19.20;;;4.10;;
42192;SDS011;52467;40.114;18.306;2023-05-16T02:49:38;24.98;;;3.92;;
42192;SDS011;52467;40.114;18.306;2023-05-16T02:52:05;25.55;;;3.05;;
42192;SDS011;52467;40.114;18.306;2023-05-16T02:54:33;27.00;;;3.08;;
42192;SDS011;52467;40.114;18.306;2023-05-16T02:57:01;22.60;;;3.67;;
42192;SDS011;52467;40.114;18.306;2023-05-16T02:59:28;23.98;;;3.40;;
42192;SDS011;52467;40.114;18.306;2023-05-16T03:01:56;27.60;;;3.10;;
42192;SDS011;52467;40.114;18.306;2023-05-16T03:04:25;18.85;;;3.83;;
42192;SDS011;52467;40.114;18.306;2023-05-16T03:06:53;23.77;;;3.17;;
42192;SDS011;52467;40.114;18.306;2023-05-16T03:09:20;18.52;;;2.65;;
42192;SDS011;52467;40.114;18.306;2023-05-16T03:11:48;22.67;;;2.45;;
42192;SDS011;52467;40.114;18.306;2023-05-16T03:14:18;23.92;;;3.40;;
42192;SDS011;52467;40.114;18.306;2023-05-16T03:16:45;23.58;;;2.88;;
42192;SDS011;52467;40.114;18.306;2023-05-16T03:19:13;29.02;;;3.90;;
42192;SDS011;52467;40.114;18.306;2023-05-16T03:21:41;20.80;;;2.38;;
42192;SDS011;52467;40.114;18.306;2023-05-16T03:24:09;24.13;;;3.45;;
42192;SDS011;52467;40.114;18.306;2023-05-16T03:26:36;25.17;;;2.90;;
42192;SDS011;52467;40.114;18.306;2023-05-16T03:29:04;28.02;;;3.42;;
42192;SDS011;52467;40.114;18.306;2023-05-16T03:31:31;25.67;;;3.45;;
42192;SDS011;52467;40.114;18.306;2023-05-16T03:33:59;19.30;;;3.13;;
42192;SDS011;52467;40.114;18.306;2023-05-16T03:36:27;18.88;;;3.25;;
42192;SDS011;52467;40.114;18.306;2023-05-16T03:38:54;18.83;;;2.45;;
42192;SDS011;52467;40.114;18.306;2023-05-16T03:41:22;17.60;;;2.42;;
42192;SDS011;52467;40.114;18.306;2023-05-16T03:43:49;31.47;;;2.83;;
42192;SDS011;52467;40.114;18.306;2023-05-16T03:46:17;20.85;;;3.65;;
42192;SDS011;52467;40.114;18.306;2023-05-16T03:48:44;25.17;;;3.13;;
42192;SDS011;52467;40.114;18.306;2023-05-16T03:51:12;14.50;;;1.98;;
42192;SDS011;52467;40.114;18.306;2023-05-16T03:53:39;22.90;;;3.25;;
42192;SDS011;52467;40.114;18.306;2023-05-16T03:56:07;17.77;;;2.70;;
42192;SDS011;52467;40.114;18.306;2023-05-16T03:58:35;21.30;;;4.13;;
42192;SDS011;52467;40.114;18.306;2023-05-16T04:01:02;23.42;;;2.95;;
42192;SDS011;52467;40.114;18.306;2023-05-16T04:03:29;28.05;;;3.28;;
42192;SDS011;52467;40.114;18.306;2023-05-16T04:05:59;21.98;;;3.25;;
42192;SDS011;52467;40.114;18.306;2023-05-16T04:08:26;20.98;;;3.22;;
42192;SDS011;52467;40.114;18.306;2023-05-16T04:10:54;20.63;;;2.63;;
42192;SDS011;52467;40.114;18.306;2023-05-16T04:13:21;23.48;;;2.88;;
42192;SDS011;52467;40.114;18.306;2023-05-16T04:15:49;17.67;;;2.90;;
42192;SDS011;52467;40.114;18.306;2023-05-16T04:18:16;18.90;;;2.80;;
42192;SDS011;52467;40.114;18.306;2023-05-16T04:20:44;18.30;;;2.33;;
42192;SDS011;52467;40.114;18.306;2023-05-16T04:23:13;18.63;;;3.03;;
42192;SDS011;52467;40.114;18.306;2023-05-16T04:25:40;18.67;;;2.50;;
42192;SDS011;52467;40.114;18.306;2023-05-16T04:28:08;22.75;;;3.22;;
42192;SDS011;52467;40.114;18.306;2023-05-16T04:30:36;23.40;;;2.75;;
42192;SDS011;52467;40.114;18.306;2023-05-16T04:33:04;16.58;;;2.13;;
42192;SDS011;52467;40.114;18.306;2023-05-16T04:35:31;16.77;;;2.63;;
42192;SDS011;52467;40.114;18.306;2023-05-16T04:37:59;18.77;;;3.00;;
42192;SDS011;52467;40.114;18.306;2023-05-16T04:40:27;19.55;;;2.63;;
42192;SDS011;52467;40.114;18.306;2023-05-16T04:42:55;19.52;;;2.80;;
42192;SDS011;52467;40.114;18.306;2023-05-16T04:45:22;17.15;;;2.80;;
42192;SDS011;52467;40.114;18.306;2023-05-16T04:47:50;22.08;;;2.65;;
42192;SDS011;52467;40.114;18.306;2023-05-16T04:50:17;19.67;;;2.97;;
42192;SDS011;52467;40.114;18.306;2023-05-16T04:52:45;17.70;;;2.90;;
42192;SDS011;52467;40.114;18.306;2023-05-16T04:55:12;19.30;;;3.80;;
42192;SDS011;52467;40.114;18.306;2023-05-16T04:57:39;18.42;;;2.85;;
42192;SDS011;52467;40.114;18.306;2023-05-16T05:00:07;19.63;;;2.28;;
42192;SDS011;52467;40.114;18.306;2023-05-16T05:02:37;19.60;;;2.97;;
42192;SDS011;52467;40.114;18.306;2023-05-16T05:05:05;21.45;;;2.50;;
42192;SDS011;52467;40.114;18.306;2023-05-16T05:07:33;15.30;;;3.05;;
42192;SDS011;52467;40.114;18.306;2023-05-16T05:10:00;20.33;;;2.47;;
42192;SDS011;52467;40.114;18.306;2023-05-16T05:12:28;16.27;;;2.87;;
42192;SDS011;52467;40.114;18.306;2023-05-16T05:14:55;20.35;;;2.53;;
42192;SDS011;52467;40.114;18.306;2023-05-16T05:17:22;23.60;;;3.28;;
42192;SDS011;52467;40.114;18.306;2023-05-16T05:19:50;26.85;;;3.28;;
42192;SDS011;52467;40.114;18.306;2023-05-16T05:22:17;21.60;;;2.80;;
42192;SDS011;52467;40.114;18.306;2023-05-16T05:24:45;21.13;;;2.70;;
42192;SDS011;52467;40.114;18.306;2023-05-16T05:27:13;22.45;;;4.15;;
42192;SDS011;52467;40.114;18.306;2023-05-16T05:29:40;19.77;;;3.08;;
42192;SDS011;52467;40.114;18.306;2023-05-16T05:32:07;22.95;;;2.90;;
42192;SDS011;52467;40.114;18.306;2023-05-16T05:34:35;21.10;;;2.40;;
42192;SDS011;52467;40.114;18.306;2023-05-16T05:37:02;27.38;;;2.67;;
42192;SDS011;52467;40.114;18.306;2023-05-16T05:39:29;18.43;;;2.83;;
42192;SDS011;52467;40.114;18.306;2023-05-16T05:41:57;20.20;;;3.03;;
42192;SDS011;52467;40.114;18.306;2023-05-16T05:44:24;21.77;;;2.67;;
42192;SDS011;52467;40.114;18.306;2023-05-16T05:46:51;16.88;;;2.25;;
42192;SDS011;52467;40.114;18.306;2023-05-16T05:49:19;24.13;;;3.28;;
42192;SDS011;52467;40.114;18.306;2023-05-16T05:51:46;24.45;;;3.13;;
42192;SDS011;52467;40.114;18.306;2023-05-16T05:54:13;22.30;;;3.97;;
42192;SDS011;52467;40.114;18.306;2023-05-16T05:56:41;19.83;;;3.40;;
42192;SDS011;52467;40.114;18.306;2023-05-16T05:59:08;30.02;;;3.47;;
42192;SDS011;52467;40.114;18.306;2023-05-16T06:01:36;27.45;;;3.47;;
42192;SDS011;52467;40.114;18.306;2023-05-16T06:04:05;21.38;;;2.60;;
42192;SDS011;52467;40.114;18.306;2023-05-16T06:06:32;16.50;;;2.92;;
42192;SDS011;52467;40.114;18.306;2023-05-16T06:08:59;25.40;;;4.03;;
42192;SDS011;52467;40.114;18.306;2023-05-16T06:11:27;17.73;;;2.88;;
42192;SDS011;52467;40.114;18.306;2023-05-16T06:13:54;18.90;;;3.05;;
42192;SDS011;52467;40.114;18.306;2023-05-16T06:16:25;16.15;;;2.72;;
42192;SDS011;52467;40.114;18.306;2023-05-16T06:18:52;23.55;;;3.10;;
42192;SDS011;52467;40.114;18.306;2023-05-16T06:21:19;23.95;;;2.50;;
42192;SDS011;52467;40.114;18.306;2023-05-16T06:23:47;27.17;;;3.97;;
42192;SDS011;52467;40.114;18.306;2023-05-16T06:26:14;21.67;;;2.78;;
42192;SDS011;52467;40.114;18.306;2023-05-16T06:28:41;20.92;;;2.60;;
42192;SDS011;52467;40.114;18.306;2023-05-16T06:31:09;20.70;;;3.03;;
42192;SDS011;52467;40.114;18.306;2023-05-16T06:33:36;20.92;;;3.35;;
42192;SDS011;52467;40.114;18.306;2023-05-16T06:36:04;21.25;;;3.30;;
42192;SDS011;52467;40.114;18.306;2023-05-16T06:38:31;15.55;;;3.10;;
42192;SDS011;52467;40.114;18.306;2023-05-16T06:40:58;23.83;;;2.75;;
42192;SDS011;52467;40.114;18.306;2023-05-16T06:43:26;25.60;;;3.35;;
42192;SDS011;52467;40.114;18.306;2023-05-16T06:45:53;22.52;;;3.15;;
42192;SDS011;52467;40.114;18.306;2023-05-16T06:48:21;21.08;;;2.90;;
42192;SDS011;52467;40.114;18.306;2023-05-16T06:50:49;18.40;;;3.38;;
42192;SDS011;52467;40.114;18.306;2023-05-16T06:53:19;14.73;;;2.60;;
42192;SDS011;52467;40.114;18.306;2023-05-16T06:55:46;16.85;;;2.90;;
42192;SDS011;52467;40.114;18.306;2023-05-16T06:58:14;21.80;;;3.50;;
42192;SDS011;52467;40.114;18.306;2023-05-16T07:00:41;23.73;;;2.70;;
42192;SDS011;52467;40.114;18.306;2023-05-16T07:03:09;19.92;;;2.72;;
42192;SDS011;52467;40.114;18.306;2023-05-16T07:05:37;16.55;;;2.90;;
42192;SDS011;52467;40.114;18.306;2023-05-16T07:08:04;16.90;;;3.13;;
42192;SDS011;52467;40.114;18.306;2023-05-16T07:10:33;23.42;;;3.65;;
42192;SDS011;52467;40.114;18.306;2023-05-16T07:13:00;17.45;;;3.30;;
42192;SDS011;52467;40.114;18.306;2023-05-16T07:15:27;22.73;;;3.17;;
42192;SDS011;52467;40.114;18.306;2023-05-16T07:17:55;16.80;;;2.83;;
42192;SDS011;52467;40.114;18.306;2023-05-16T07:20:22;17.60;;;2.87;;
42192;SDS011;52467;40.114;18.306;2023-05-16T07:22:50;14.23;;;2.65;;
42192;SDS011;52467;40.114;18.306;2023-05-16T07:25:17;19.15;;;3.70;;
42192;SDS011;52467;40.114;18.306;2023-05-16T07:27:45;21.15;;;3.05;;
42192;SDS011;52467;40.114;18.306;2023-05-16T07:30:12;14.13;;;2.47;;
42192;SDS011;52467;40.114;18.306;2023-05-16T07:32:40;26.05;;;3.80;;
42192;SDS011;52467;40.114;18.306;2023-05-16T07:35:08;18.73;;;3.17;;
42192;SDS011;52467;40.114;18.306;2023-05-16T07:37:36;17.77;;;2.97;;
42192;SDS011;52467;40.114;18.306;2023-05-16T07:40:04;17.60;;;3.28;;
42192;SDS011;52467;40.114;18.306;2023-05-16T07:42:32;23.85;;;3.35;;
42192;SDS011;52467;40.114;18.306;2023-05-16T07:44:59;17.02;;;3.13;;
42192;SDS011;52467;40.114;18.306;2023-05-16T07:47:27;18.42;;;2.92;;
42192;SDS011;52467;40.114;18.306;2023-05-16T07:49:55;21.43;;;3.17;;
42192;SDS011;52467;40.114;18.306;2023-05-16T07:52:22;19.27;;;3.17;;
42192;SDS011;52467;40.114;18.306;2023-05-16T07:54:49;17.85;;;3.00;;
42192;SDS011;52467;40.114;18.306;2023-05-16T07:57:17;16.35;;;3.00;;
42192;SDS011;52467;40.114;18.306;2023-05-16T07:59:44;11.88;;;2.90;;
42192;SDS011;52467;40.114;18.306;2023-05-16T08:02:12;14.40;;;3.00;;
42192;SDS011;52467;40.114;18.306;2023-05-16T08:04:39;14.27;;;2.75;;
42192;SDS011;52467;40.114;18.306;2023-05-16T08:07:07;18.85;;;3.17;;
42192;SDS011;52467;40.114;18.306;2023-05-16T08:09:34;16.58;;;2.80;;
42192;SDS011;52467;40.114;18.306;2023-05-16T08:12:01;14.60;;;3.08;;
42192;SDS011;52467;40.114;18.306;2023-05-16T08:14:29;12.43;;;2.30;;
42192;SDS011;52467;40.114;18.306;2023-05-16T08:16:58;17.00;;;3.20;;
42192;SDS011;52467;40.114;18.306;2023-05-16T08:19:28;18.40;;;3.33;;
42192;SDS011;52467;40.114;18.306;2023-05-16T08:21:56;13.40;;;2.40;;
42192;SDS011;52467;40.114;18.306;2023-05-16T08:24:23;12.40;;;2.63;;
42192;SDS011;52467;40.114;18.306;2023-05-16T08:26:51;14.30;;;2.45;;
42192;SDS011;52467;40.114;18.306;2023-05-16T08:29:19;12.30;;;2.17;;
42192;SDS011;52467;40.114;18.306;2023-05-16T08:31:46;7.93;;;1.75;;
42192;SDS011;52467;40.114;18.306;2023-05-16T08:34:14;12.65;;;1.80;;
42192;SDS011;52467;40.114;18.306;2023-05-16T08:36:42;10.07;;;2.20;;
42192;SDS011;52467;40.114;18.306;2023-05-16T08:39:09;13.07;;;3.07;;
42192;SDS011;52467;40.114;18.306;2023-05-16T08:41:37;13.23;;;2.47;;
42192;SDS011;52467;40.114;18.306;2023-05-16T08:44:05;11.10;;;2.40;;
42192;SDS011;52467;40.114;18.306;2023-05-16T08:46:32;12.95;;;3.08;;
42192;SDS011;52467;40.114;18.306;2023-05-16T08:49:03;17.92;;;2.85;;
42192;SDS011;52467;40.114;18.306;2023-05-16T08:51:33;11.55;;;2.33;;
42192;SDS011;52467;40.114;18.306;2023-05-16T08:54:02;9.03;;;2.13;;
42192;SDS011;52467;40.114;18.306;2023-05-16T08:56:32;20.35;;;2.65;;
42192;SDS011;52467;40.114;18.306;2023-05-16T08:59:01;12.65;;;2.28;;
42192;SDS011;52467;40.114;18.306;2023-05-16T09:01:29;13.68;;;1.90;;
42192;SDS011;52467;40.114;18.306;2023-05-16T09:03:58;12.52;;;2.33;;
42192;SDS011;52467;40.114;18.306;2023-05-16T09:06:26;11.93;;;2.63;;
42192;SDS011;52467;40.114;18.306;2023-05-16T09:08:54;13.57;;;2.87;;
42192;SDS011;52467;40.114;18.306;2023-05-16T09:11:22;18.83;;;2.78;;
42192;SDS011;52467;40.114;18.306;2023-05-16T09:13:50;17.30;;;3.33;;
42192;SDS011;52467;40.114;18.306;2023-05-16T09:16:18;14.87;;;2.30;;
42192;SDS011;52467;40.114;18.306;2023-05-16T09:18:51;14.32;;;2.30;;
42192;SDS011;52467;40.114;18.306;2023-05-16T09:21:22;10.35;;;1.75;;
42192;SDS011;52467;40.114;18.306;2023-05-16T09:23:53;14.17;;;2.27;;
42192;SDS011;52467;40.114;18.306;2023-05-16T09:26:21;11.93;;;2.42;;
42192;SDS011;52467;40.114;18.306;2023-05-16T09:28:52;10.90;;;2.20;;
42192;SDS011;52467;40.114;18.306;2023-05-16T09:31:25;7.43;;;1.80;;
42192;SDS011;52467;40.114;18.306;2023-05-16T09:33:55;10.27;;;1.90;;
42192;SDS011;52467;40.114;18.306;2023-05-16T09:36:24;7.15;;;1.65;;
42192;SDS011;52467;40.114;18.306;2023-05-16T09:38:52;7.65;;;1.70;;
42192;SDS011;52467;40.114;18.306;2023-05-16T09:41:20;9.18;;;1.70;;
42192;SDS011;52467;40.114;18.306;2023-05-16T09:43:48;13.00;;;2.08;;
42192;SDS011;52467;40.114;18.306;2023-05-16T09:46:16;9.32;;;1.52;;
42192;SDS011;52467;40.114;18.306;2023-05-16T09:48:45;11.90;;;2.28;;
42192;SDS011;52467;40.114;18.306;2023-05-16T09:51:14;6.72;;;1.70;;
42192;SDS011;52467;40.114;18.306;2023-05-16T09:53:41;14.75;;;2.00;;
42192;SDS011;52467;40.114;18.306;2023-05-16T09:56:10;7.03;;;1.70;;
42192;SDS011;52467;40.114;18.306;2023-05-16T09:58:38;11.23;;;1.80;;
42192;SDS011;52467;40.114;18.306;2023-05-16T10:01:07;13.18;;;2.05;;
42192;SDS011;52467;40.114;18.306;2023-05-16T10:03:37;5.28;;;1.90;;
42192;SDS011;52467;40.114;18.306;2023-05-16T10:06:08;9.00;;;1.67;;
42192;SDS011;52467;40.114;18.306;2023-05-16T10:08:36;7.63;;;2.10;;
42192;SDS011;52467;40.114;18.306;2023-05-16T10:11:05;8.52;;;2.10;;
42192;SDS011;52467;40.114;18.306;2023-05-16T10:13:34;6.85;;;1.58;;
42192;SDS011;52467;40.114;18.306;2023-05-16T10:16:05;9.75;;;1.73;;
42192;SDS011;52467;40.114;18.306;2023-05-16T10:18:34;9.73;;;2.00;;
42192;SDS011;52467;40.114;18.306;2023-05-16T10:21:07;5.82;;;1.65;;
42192;SDS011;52467;40.114;18.306;2023-05-16T10:23:40;5.75;;;1.10;;
42192;SDS011;52467;40.114;18.306;2023-05-16T10:26:11;4.40;;;1.13;;
42192;SDS011;52467;40.114;18.306;2023-05-16T10:28:40;7.65;;;1.42;;
42192;SDS011;52467;40.114;18.306;2023-05-16T10:31:09;4.30;;;0.90;;
42192;SDS011;52467;40.114;18.306;2023-05-16T10:33:38;4.80;;;1.27;;
42192;SDS011;52467;40.114;18.306;2023-05-16T10:36:06;6.10;;;1.10;;
42192;SDS011;52467;40.114;18.306;2023-05-16T10:38:35;5.17;;;1.10;;
42192;SDS011;52467;40.114;18.306;2023-05-16T10:41:03;3.50;;;0.90;;
42192;SDS011;52467;40.114;18.306;2023-05-16T10:43:32;1.85;;;0.80;;
42192;SDS011;52467;40.114;18.306;2023-05-16T10:46:06;5.78;;;1.00;;
42192;SDS011;52467;40.114;18.306;2023-05-16T10:48:38;4.47;;;1.30;;
42192;SDS011;52467;40.114;18.306;2023-05-16T10:54:02;3.70;;;0.60;;
42192;SDS011;52467;40.114;18.306;2023-05-16T10:56:40;3.33;;;0.70;;
42192;SDS011;52467;40.114;18.306;2023-05-16T10:59:30;1.95;;;0.57;;
42192;SDS011;52467;40.114;18.306;2023-05-16T11:01:57;3.00;;;0.50;;
42192;SDS011;52467;40.114;18.306;2023-05-16T11:04:34;4.13;;;0.60;;
42192;SDS011;52467;40.114;18.306;2023-05-16T11:07:11;4.50;;;1.05;;
42192;SDS011;52467;40.114;18.306;2023-05-16T11:09:40;4.20;;;0.60;;
42192;SDS011;52467;40.114;18.306;2023-05-16T11:12:10;3.60;;;0.55;;
42192;SDS011;52467;40.114;18.306;2023-05-16T11:14:39;2.40;;;0.40;;
42192;SDS011;52467;40.114;18.306;2023-05-16T11:17:14;2.47;;;0.65;;
42192;SDS011;52467;40.114;18.306;2023-05-16T11:19:55;5.75;;;0.93;;
42192;SDS011;52467;40.114;18.306;2023-05-16T11:22:32;4.72;;;0.70;;
42192;SDS011;52467;40.114;18.306;2023-05-16T11:25:03;4.97;;;0.57;;
42192;SDS011;52467;40.114;18.306;2023-05-16T11:30:59;4.05;;;0.80;;
42192;SDS011;52467;40.114;18.306;2023-05-16T11:33:31;4.20;;;0.93;;
42192;SDS011;52467;40.114;18.306;2023-05-16T11:36:13;4.63;;;1.05;;
42192;SDS011;52467;40.114;18.306;2023-05-16T11:38:41;5.22;;;1.00;;
42192;SDS011;52467;40.114;18.306;2023-05-16T11:41:09;5.28;;;1.35;;
42192;SDS011;52467;40.114;18.306;2023-05-16T11:43:40;6.90;;;1.02;;
42192;SDS011;52467;40.114;18.306;2023-05-16T11:46:10;9.82;;;1.42;;
42192;SDS011;52467;40.114;18.306;2023-05-16T11:48:38;6.40;;;1.38;;
42192;SDS011;52467;40.114;18.306;2023-05-16T11:51:06;7.38;;;1.55;;
42192;SDS011;52467;40.114;18.306;2023-05-16T11:53:33;11.35;;;1.75;;
42192;SDS011;52467;40.114;18.306;2023-05-16T11:56:01;9.85;;;2.17;;
42192;SDS011;52467;40.114;18.306;2023-05-16T11:58:29;7.55;;;1.15;;
42192;SDS011;52467;40.114;18.306;2023-05-16T12:00:57;10.38;;;1.63;;
42192;SDS011;52467;40.114;18.306;2023-05-16T12:03:25;10.90;;;2.40;;
42192;SDS011;52467;40.114;18.306;2023-05-16T12:05:52;11.18;;;1.92;;
42192;SDS011;52467;40.114;18.306;2023-05-16T12:08:21;13.32;;;1.70;;
42192;SDS011;52467;40.114;18.306;2023-05-16T12:10:49;8.38;;;2.13;;
42192;SDS011;52467;40.114;18.306;2023-05-16T12:13:21;9.60;;;1.70;;
42192;SDS011;52467;40.114;18.306;2023-05-16T12:15:50;10.18;;;1.83;;
42192;SDS011;52467;40.114;18.306;2023-05-16T12:18:18;10.50;;;2.25;;
42192;SDS011;52467;40.114;18.306;2023-05-16T12:20:50;11.32;;;2.20;;
42192;SDS011;52467;40.114;18.306;2023-05-16T12:23:17;12.13;;;2.22;;
42192;SDS011;52467;40.114;18.306;2023-05-16T12:25:45;7.88;;;2.22;;
42192;SDS011;52467;40.114;18.306;2023-05-16T12:28:14;6.63;;;1.60;;
42192;SDS011;52467;40.114;18.306;2023-05-16T12:30:43;5.78;;;1.23;;
42192;SDS011;52467;40.114;18.306;2023-05-16T12:33:11;6.72;;;1.70;;
42192;SDS011;52467;40.114;18.306;2023-05-16T12:35:41;5.43;;;1.08;;
42192;SDS011;52467;40.114;18.306;2023-05-16T12:38:10;6.93;;;1.35;;
42192;SDS011;52467;40.114;18.306;2023-05-16T12:40:40;5.20;;;0.90;;
42192;SDS011;52467;40.114;18.306;2023-05-16T12:43:12;5.00;;;0.80;;
42192;SDS011;52467;40.114;18.306;2023-05-16T12:45:40;4.15;;;1.30;;
42192;SDS011;52467;40.114;18.306;2023-05-16T12:48:12;3.42;;;0.90;;
42192;SDS011;52467;40.114;18.306;2023-05-16T12:50:42;2.67;;;0.80;;
42192;SDS011;52467;40.114;18.306;2023-05-16T12:53:12;2.25;;;0.70;;
42192;SDS011;52467;40.114;18.306;2023-05-16T12:55:41;4.80;;;0.90;;
42192;SDS011;52467;40.114;18.306;2023-05-16T12:58:09;3.20;;;0.70;;
42192;SDS011;52467;40.114;18.306;2023-05-16T13:00:37;6.00;;;1.00;;
42192;SDS011;52467;40.114;18.306;2023-05-16T13:03:05;3.50;;;0.85;;
42192;SDS011;52467;40.114;18.306;2023-05-16T13:05:33;2.28;;;0.65;;
42192;SDS011;52467;40.114;18.306;2023-05-16T13:08:01;3.75;;;0.70;;
42192;SDS011;52467;40.114;18.306;2023-05-16T13:10:29;4.78;;;0.98;;
42192;SDS011;52467;40.114;18.306;2023-05-16T13:12:56;5.32;;;0.93;;
42192;SDS011;52467;40.114;18.306;2023-05-16T13:15:25;3.20;;;0.57;;
42192;SDS011;52467;40.114;18.306;2023-05-16T13:17:53;4.55;;;0.98;;
42192;SDS011;52467;40.114;18.306;2023-05-16T13:20:20;2.92;;;1.02;;
42192;SDS011;52467;40.114;18.306;2023-05-16T13:22:47;3.25;;;0.80;;
42192;SDS011;52467;40.114;18.306;2023-05-16T13:25:15;3.25;;;1.10;;
42192;SDS011;52467;40.114;18.306;2023-05-16T13:27:44;4.95;;;0.93;;
42192;SDS011;52467;40.114;18.306;2023-05-16T13:30:12;5.45;;;0.93;;
42192;SDS011;52467;40.114;18.306;2023-05-16T13:32:39;5.93;;;1.13;;
42192;SDS011;52467;40.114;18.306;2023-05-16T13:35:07;4.18;;;1.00;;
42192;SDS011;52467;40.114;18.306;2023-05-16T13:37:36;6.63;;;1.00;;
42192;SDS011;52467;40.114;18.306;2023-05-16T13:40:04;5.73;;;1.00;;
42192;SDS011;52467;40.114;18.306;2023-05-16T13:42:36;4.60;;;1.13;;
42192;SDS011;52467;40.114;18.306;2023-05-16T13:45:04;5.65;;;1.20;;
42192;SDS011;52467;40.114;18.306;2023-05-16T13:47:32;4.80;;;1.37;;
42192;SDS011;52467;40.114;18.306;2023-05-16T13:50:00;5.35;;;0.82;;
42192;SDS011;52467;40.114;18.306;2023-05-16T13:52:31;5.30;;;0.80;;
42192;SDS011;52467;40.114;18.306;2023-05-16T13:54:59;4.20;;;1.35;;
42192;SDS011;52467;40.114;18.306;2023-05-16T13:57:27;4.78;;;1.00;;
42192;SDS011;52467;40.114;18.306;2023-05-16T13:59:54;6.32;;;1.00;;
42192;SDS011;52467;40.114;18.306;2023-05-16T14:02:39;3.35;;;0.80;;
42192;SDS011;52467;40.114;18.306;2023-05-16T14:05:07;4.07;;;1.00;;
42192;SDS011;52467;40.114;18.306;2023-05-16T14:07:35;3.80;;;1.10;;
42192;SDS011;52467;40.114;18.306;2023-05-16T14:10:06;3.03;;;1.15;;
42192;SDS011;52467;40.114;18.306;2023-05-16T14:12:35;4.57;;;1.20;;
42192;SDS011;52467;40.114;18.306;2023-05-16T14:15:03;4.93;;;1.02;;
42192;SDS011;52467;40.114;18.306;2023-05-16T14:17:31;5.33;;;1.13;;
42192;SDS011;52467;40.114;18.306;2023-05-16T14:19:58;8.52;;;1.55;;
42192;SDS011;52467;40.114;18.306;2023-05-16T14:22:26;8.93;;;1.42;;
42192;SDS011;52467;40.114;18.306;2023-05-16T14:24:54;7.00;;;1.40;;
42192;SDS011;52467;40.114;18.306;2023-05-16T14:27:21;10.60;;;2.00;;
42192;SDS011;52467;40.114;18.306;2023-05-16T14:29:48;7.37;;;1.10;;
42192;SDS011;52467;40.114;18.306;2023-05-16T14:32:16;9.35;;;1.40;;
42192;SDS011;52467;40.114;18.306;2023-05-16T14:34:43;6.80;;;1.30;;
42192;SDS011;52467;40.114;18.306;2023-05-16T14:37:10;6.00;;;1.00;;
42192;SDS011;52467;40.114;18.306;2023-05-16T14:39:40;5.00;;;1.00;;
42192;SDS011;52467;40.114;18.306;2023-05-16T14:42:08;8.40;;;1.10;;
42192;SDS011;52467;40.114;18.306;2023-05-16T14:44:36;6.43;;;1.20;;
42192;SDS011;52467;40.114;18.306;2023-05-16T14:47:04;7.70;;;0.95;;
42192;SDS011;52467;40.114;18.306;2023-05-16T14:49:32;5.43;;;1.25;;
42192;SDS011;52467;40.114;18.306;2023-05-16T14:51:59;6.07;;;1.30;;
42192;SDS011;52467;40.114;18.306;2023-05-16T14:54:26;5.55;;;1.30;;